sensor_id;sensor_type;location;lat;lon;timestamp;P1;durP1;ratioP1;P2;durP2;ratioP2
66437;SDS011;54537;47.972;11.662;2024-01-10T00:02:14;37.30;;;10.15;;
66437;SDS011;54537;47.972;11.662;2024-01-10T00:04:40;35.78;;;10.57;;
66437;SDS011;54537;47.972;11.662;2024-01-10T00:07:07;37.40;;;10.30;;
66437;SDS011;54537;47.972;11.662;2024-01-10T00:09:34;49.33;;;10.30;;
66437;SDS011;54537;47.972;11.662;2024-01-10T00:12:00;31.35;;;9.10;;
66437;SDS011;54537;47.972;11.662;2024-01-10T00:14:28;39.90;;;10.32;;
66437;SDS011;54537;47.972;11.662;2024-01-10T00:16:54;27.33;;;7.97;;
66437;SDS011;54537;47.972;11.662;2024-01-10T00:19:21;30.10;;;9.00;;
66437;SDS011;54537;47.972;11.662;2024-01-10T00:21:48;32.17;;;7.80;;
66437;SDS011;54537;47.972;11.662;2024-01-10T00:24:14;38.03;;;10.27;;
66437;SDS011;54537;47.972;11.662;2024-01-10T00:26:41;35.60;;;7.82;;
66437;SDS011;54537;47.972;11.662;2024-01-10T00:29:07;36.58;;;10.10;;
66437;SDS011;54537;47.972;11.662;2024-01-10T00:31:35;40.42;;;9.82;;
66437;SDS011;54537;47.972;11.662;2024-01-10T00:34:02;34.72;;;9.98;;
66437;SDS011;54537;47.972;11.662;2024-01-10T00:36:28;29.27;;;8.50;;
66437;SDS011;54537;47.972;11.662;2024-01-10T00:38:55;29.33;;;8.07;;
66437;SDS011;54537;47.972;11.662;2024-01-10T00:41:21;36.15;;;9.27;;
66437;SDS011;54537;47.972;11.662;2024-01-10T00:43:48;44.40;;;9.82;;
66437;SDS011;54537;47.972;11.662;2024-01-10T00:46:14;30.30;;;8.95;;
66437;SDS011;54537;47.972;11.662;2024-01-10T00:48:42;22.98;;;8.00;;
66437;SDS011;54537;47.972;11.662;2024-01-10T00:51:08;34.97;;;8.98;;
66437;SDS011;54537;47.972;11.662;2024-01-10T00:53:36;35.08;;;8.90;;
66437;SDS011;54537;47.972;11.662;2024-01-10T00:56:03;14.82;;;5.05;;
66437;SDS011;54537;47.972;11.662;2024-01-10T00:58:30;32.15;;;8.75;;
66437;SDS011;54537;47.972;11.662;2024-01-10T01:00:57;35.65;;;9.40;;
66437;SDS011;54537;47.972;11.662;2024-01-10T01:03:23;39.88;;;9.88;;
66437;SDS011;54537;47.972;11.662;2024-01-10T01:05:51;36.42;;;8.23;;
66437;SDS011;54537;47.972;11.662;2024-01-10T01:08:18;36.20;;;9.77;;
66437;SDS011;54537;47.972;11.662;2024-01-10T01:10:44;32.00;;;9.82;;
66437;SDS011;54537;47.972;11.662;2024-01-10T01:13:11;34.65;;;9.18;;
66437;SDS011;54537;47.972;11.662;2024-01-10T01:15:37;27.95;;;7.47;;
66437;SDS011;54537;47.972;11.662;2024-01-10T01:18:04;31.20;;;8.93;;
66437;SDS011;54537;47.972;11.662;2024-01-10T01:20:31;38.08;;;10.23;;
66437;SDS011;54537;47.972;11.662;2024-01-10T01:22:59;38.80;;;9.88;;
66437;SDS011;54537;47.972;11.662;2024-01-10T01:25:25;35.78;;;9.63;;
66437;SDS011;54537;47.972;11.662;2024-01-10T01:27:52;31.67;;;8.70;;
66437;SDS011;54537;47.972;11.662;2024-01-10T01:30:18;44.65;;;9.25;;
66437;SDS011;54537;47.972;11.662;2024-01-10T01:32:46;39.85;;;9.70;;
66437;SDS011;54537;47.972;11.662;2024-01-10T01:35:13;35.80;;;8.88;;
66437;SDS011;54537;47.972;11.662;2024-01-10T01:37:40;35.00;;;9.63;;
66437;SDS011;54537;47.972;11.662;2024-01-10T01:40:09;42.30;;;10.88;;
66437;SDS011;54537;47.972;11.662;2024-01-10T01:42:36;41.70;;;12.23;;
66437;SDS011;54537;47.972;11.662;2024-01-10T01:45:02;33.63;;;9.18;;
66437;SDS011;54537;47.972;11.662;2024-01-10T01:47:29;39.47;;;11.05;;
66437;SDS011;54537;47.972;11.662;2024-01-10T01:49:56;38.13;;;9.85;;
66437;SDS011;54537;47.972;11.662;2024-01-10T01:52:23;34.53;;;9.75;;
66437;SDS011;54537;47.972;11.662;2024-01-10T01:54:49;39.53;;;9.32;;
66437;SDS011;54537;47.972;11.662;2024-01-10T01:57:17;28.17;;;6.85;;
66437;SDS011;54537;47.972;11.662;2024-01-10T01:59:44;38.47;;;11.57;;
66437;SDS011;54537;47.972;11.662;2024-01-10T02:02:11;43.85;;;10.65;;
66437;SDS011;54537;47.972;11.662;2024-01-10T02:04:37;31.23;;;9.80;;
66437;SDS011;54537;47.972;11.662;2024-01-10T02:07:04;35.60;;;9.20;;
66437;SDS011;54537;47.972;11.662;2024-01-10T02:09:31;40.67;;;10.05;;
66437;SDS011;54537;47.972;11.662;2024-01-10T02:11:58;36.55;;;10.00;;
66437;SDS011;54537;47.972;11.662;2024-01-10T02:14:26;33.75;;;9.32;;
66437;SDS011;54537;47.972;11.662;2024-01-10T02:16:51;47.03;;;11.20;;
66437;SDS011;54537;47.972;11.662;2024-01-10T02:19:19;32.95;;;8.05;;
66437;SDS011;54537;47.972;11.662;2024-01-10T02:21:46;34.45;;;8.70;;
66437;SDS011;54537;47.972;11.662;2024-01-10T02:24:13;41.58;;;9.45;;
66437;SDS011;54537;47.972;11.662;2024-01-10T02:26:41;41.08;;;10.63;;
66437;SDS011;54537;47.972;11.662;2024-01-10T02:29:07;40.17;;;9.73;;
66437;SDS011;54537;47.972;11.662;2024-01-10T02:31:34;36.80;;;10.35;;
66437;SDS011;54537;47.972;11.662;2024-01-10T02:34:00;46.25;;;10.55;;
66437;SDS011;54537;47.972;11.662;2024-01-10T02:36:27;48.38;;;11.98;;
66437;SDS011;54537;47.972;11.662;2024-01-10T02:38:53;43.45;;;10.00;;
66437;SDS011;54537;47.972;11.662;2024-01-10T02:41:20;35.10;;;9.75;;
66437;SDS011;54537;47.972;11.662;2024-01-10T02:43:47;36.65;;;10.20;;
66437;SDS011;54537;47.972;11.662;2024-01-10T02:46:14;38.22;;;9.27;;
66437;SDS011;54537;47.972;11.662;2024-01-10T02:48:40;37.67;;;10.02;;
66437;SDS011;54537;47.972;11.662;2024-01-10T02:51:07;35.67;;;9.00;;
66437;SDS011;54537;47.972;11.662;2024-01-10T02:53:33;37.38;;;7.97;;
66437;SDS011;54537;47.972;11.662;2024-01-10T02:56:00;30.27;;;8.32;;
66437;SDS011;54537;47.972;11.662;2024-01-10T02:58:26;29.80;;;8.60;;
66437;SDS011;54537;47.972;11.662;2024-01-10T03:00:56;37.03;;;9.13;;
66437;SDS011;54537;47.972;11.662;2024-01-10T03:03:23;25.13;;;7.20;;
66437;SDS011;54537;47.972;11.662;2024-01-10T03:05:49;18.13;;;5.95;;
66437;SDS011;54537;47.972;11.662;2024-01-10T03:08:15;39.58;;;10.10;;
66437;SDS011;54537;47.972;11.662;2024-01-10T03:10:42;48.05;;;10.52;;
66437;SDS011;54537;47.972;11.662;2024-01-10T03:13:08;43.60;;;10.55;;
66437;SDS011;54537;47.972;11.662;2024-01-10T03:15:35;43.20;;;10.52;;
66437;SDS011;54537;47.972;11.662;2024-01-10T03:18:03;43.28;;;10.90;;
66437;SDS011;54537;47.972;11.662;2024-01-10T03:20:29;36.30;;;10.73;;
66437;SDS011;54537;47.972;11.662;2024-01-10T03:22:56;46.13;;;11.25;;
66437;SDS011;54537;47.972;11.662;2024-01-10T03:25:22;49.47;;;11.13;;
66437;SDS011;54537;47.972;11.662;2024-01-10T03:27:49;30.15;;;8.65;;
66437;SDS011;54537;47.972;11.662;2024-01-10T03:30:16;42.17;;;11.35;;
66437;SDS011;54537;47.972;11.662;2024-01-10T03:32:43;41.58;;;9.80;;
66437;SDS011;54537;47.972;11.662;2024-01-10T03:35:11;43.90;;;10.57;;
66437;SDS011;54537;47.972;11.662;2024-01-10T03:37:37;39.00;;;9.50;;
66437;SDS011;54537;47.972;11.662;2024-01-10T03:40:04;35.28;;;9.05;;
66437;SDS011;54537;47.972;11.662;2024-01-10T03:42:31;35.92;;;9.60;;
66437;SDS011;54537;47.972;11.662;2024-01-10T03:44:58;35.38;;;9.98;;
66437;SDS011;54537;47.972;11.662;2024-01-10T03:47:24;35.85;;;8.88;;
66437;SDS011;54537;47.972;11.662;2024-01-10T03:49:51;38.10;;;10.48;;
66437;SDS011;54537;47.972;11.662;2024-01-10T03:52:19;40.35;;;10.20;;
66437;SDS011;54537;47.972;11.662;2024-01-10T03:54:45;30.85;;;9.73;;
66437;SDS011;54537;47.972;11.662;2024-01-10T03:57:12;41.58;;;10.25;;
66437;SDS011;54537;47.972;11.662;2024-01-10T03:59:38;35.95;;;8.27;;
66437;SDS011;54537;47.972;11.662;2024-01-10T04:02:05;41.50;;;11.60;;
66437;SDS011;54537;47.972;11.662;2024-01-10T04:04:31;37.53;;;9.52;;
66437;SDS011;54537;47.972;11.662;2024-01-10T04:06:58;38.33;;;10.48;;
66437;SDS011;54537;47.972;11.662;2024-01-10T04:09:26;39.80;;;10.65;;
66437;SDS011;54537;47.972;11.662;2024-01-10T04:11:52;37.83;;;10.80;;
66437;SDS011;54537;47.972;11.662;2024-01-10T04:14:18;44.60;;;10.48;;
66437;SDS011;54537;47.972;11.662;2024-01-10T04:16:45;46.05;;;11.30;;
66437;SDS011;54537;47.972;11.662;2024-01-10T04:19:11;45.28;;;9.70;;
66437;SDS011;54537;47.972;11.662;2024-01-10T04:21:38;45.28;;;11.68;;
66437;SDS011;54537;47.972;11.662;2024-01-10T04:24:04;57.13;;;11.75;;
66437;SDS011;54537;47.972;11.662;2024-01-10T04:26:32;42.95;;;10.48;;
66437;SDS011;54537;47.972;11.662;2024-01-10T04:28:59;41.20;;;10.95;;
66437;SDS011;54537;47.972;11.662;2024-01-10T04:31:25;44.45;;;10.27;;
66437;SDS011;54537;47.972;11.662;2024-01-10T04:33:52;41.78;;;10.50;;
66437;SDS011;54537;47.972;11.662;2024-01-10T04:36:18;45.88;;;10.55;;
66437;SDS011;54537;47.972;11.662;2024-01-10T04:38:45;31.50;;;9.60;;
66437;SDS011;54537;47.972;11.662;2024-01-10T04:41:11;45.67;;;11.25;;
66437;SDS011;54537;47.972;11.662;2024-01-10T04:43:39;39.78;;;11.50;;
66437;SDS011;54537;47.972;11.662;2024-01-10T04:46:06;50.40;;;13.25;;
66437;SDS011;54537;47.972;11.662;2024-01-10T04:48:35;51.50;;;12.48;;
66437;SDS011;54537;47.972;11.662;2024-01-10T04:51:01;44.63;;;12.30;;
66437;SDS011;54537;47.972;11.662;2024-01-10T04:53:28;41.92;;;11.15;;
66437;SDS011;54537;47.972;11.662;2024-01-10T04:55:54;34.78;;;10.38;;
66437;SDS011;54537;47.972;11.662;2024-01-10T04:58:21;49.72;;;12.20;;
66437;SDS011;54537;47.972;11.662;2024-01-10T05:00:48;46.40;;;11.88;;
66437;SDS011;54537;47.972;11.662;2024-01-10T05:03:14;43.92;;;11.68;;
66437;SDS011;54537;47.972;11.662;2024-01-10T05:05:41;47.75;;;11.95;;
66437;SDS011;54537;47.972;11.662;2024-01-10T05:08:07;41.25;;;9.93;;
66437;SDS011;54537;47.972;11.662;2024-01-10T05:10:34;46.25;;;12.32;;
66437;SDS011;54537;47.972;11.662;2024-01-10T05:13:00;40.17;;;11.20;;
66437;SDS011;54537;47.972;11.662;2024-01-10T05:15:27;44.30;;;10.50;;
66437;SDS011;54537;47.972;11.662;2024-01-10T05:17:54;47.78;;;11.23;;
66437;SDS011;54537;47.972;11.662;2024-01-10T05:20:21;58.63;;;13.60;;
66437;SDS011;54537;47.972;11.662;2024-01-10T05:22:47;42.25;;;11.35;;
66437;SDS011;54537;47.972;11.662;2024-01-10T05:25:14;42.00;;;12.48;;
66437;SDS011;54537;47.972;11.662;2024-01-10T05:27:43;48.33;;;11.07;;
66437;SDS011;54537;47.972;11.662;2024-01-10T05:30:10;42.20;;;10.02;;
66437;SDS011;54537;47.972;11.662;2024-01-10T05:32:37;44.65;;;11.15;;
66437;SDS011;54537;47.972;11.662;2024-01-10T05:35:06;41.55;;;12.00;;
66437;SDS011;54537;47.972;11.662;2024-01-10T05:37:33;41.25;;;10.93;;
66437;SDS011;54537;47.972;11.662;2024-01-10T05:39:59;48.97;;;11.98;;
66437;SDS011;54537;47.972;11.662;2024-01-10T05:42:26;51.85;;;12.40;;
66437;SDS011;54537;47.972;11.662;2024-01-10T05:44:52;49.40;;;11.38;;
66437;SDS011;54537;47.972;11.662;2024-01-10T05:47:19;47.20;;;10.80;;
66437;SDS011;54537;47.972;11.662;2024-01-10T05:49:45;49.00;;;13.65;;
66437;SDS011;54537;47.972;11.662;2024-01-10T05:52:13;36.28;;;9.38;;
66437;SDS011;54537;47.972;11.662;2024-01-10T05:54:40;48.30;;;12.88;;
66437;SDS011;54537;47.972;11.662;2024-01-10T05:57:06;39.95;;;11.20;;
66437;SDS011;54537;47.972;11.662;2024-01-10T05:59:33;37.88;;;9.88;;
66437;SDS011;54537;47.972;11.662;2024-01-10T06:02:00;44.15;;;11.30;;
66437;SDS011;54537;47.972;11.662;2024-01-10T06:04:28;50.22;;;12.82;;
66437;SDS011;54537;47.972;11.662;2024-01-10T06:06:56;42.92;;;10.95;;
66437;SDS011;54537;47.972;11.662;2024-01-10T06:09:24;40.13;;;10.43;;
66437;SDS011;54537;47.972;11.662;2024-01-10T06:11:51;46.50;;;11.82;;
66437;SDS011;54537;47.972;11.662;2024-01-10T06:14:17;44.38;;;12.63;;
66437;SDS011;54537;47.972;11.662;2024-01-10T06:16:44;41.20;;;10.93;;
66437;SDS011;54537;47.972;11.662;2024-01-10T06:19:11;46.80;;;10.73;;
66437;SDS011;54537;47.972;11.662;2024-01-10T06:21:37;38.22;;;10.32;;
66437;SDS011;54537;47.972;11.662;2024-01-10T06:24:04;48.38;;;10.27;;
66437;SDS011;54537;47.972;11.662;2024-01-10T06:26:32;35.25;;;9.80;;
66437;SDS011;54537;47.972;11.662;2024-01-10T06:28:59;36.10;;;10.98;;
66437;SDS011;54537;47.972;11.662;2024-01-10T06:31:25;34.47;;;10.50;;
66437;SDS011;54537;47.972;11.662;2024-01-10T06:33:52;40.55;;;10.68;;
66437;SDS011;54537;47.972;11.662;2024-01-10T06:36:18;34.88;;;10.50;;
66437;SDS011;54537;47.972;11.662;2024-01-10T06:38:45;46.05;;;10.68;;
66437;SDS011;54537;47.972;11.662;2024-01-10T06:41:12;42.15;;;10.70;;
66437;SDS011;54537;47.972;11.662;2024-01-10T06:43:41;33.08;;;9.50;;
66437;SDS011;54537;47.972;11.662;2024-01-10T06:46:07;49.85;;;11.45;;
66437;SDS011;54537;47.972;11.662;2024-01-10T06:48:35;44.67;;;11.88;;
66437;SDS011;54537;47.972;11.662;2024-01-10T06:51:01;40.35;;;10.88;;
66437;SDS011;54537;47.972;11.662;2024-01-10T06:53:28;53.40;;;11.82;;
66437;SDS011;54537;47.972;11.662;2024-01-10T06:55:55;44.10;;;11.48;;
66437;SDS011;54537;47.972;11.662;2024-01-10T06:58:21;37.95;;;11.32;;
66437;SDS011;54537;47.972;11.662;2024-01-10T07:00:49;47.40;;;12.82;;
66437;SDS011;54537;47.972;11.662;2024-01-10T07:03:16;52.85;;;12.50;;
66437;SDS011;54537;47.972;11.662;2024-01-10T07:05:44;44.50;;;12.10;;
66437;SDS011;54537;47.972;11.662;2024-01-10T07:08:10;46.65;;;11.35;;
66437;SDS011;54537;47.972;11.662;2024-01-10T07:10:37;44.75;;;11.45;;
66437;SDS011;54537;47.972;11.662;2024-01-10T07:13:03;33.63;;;9.98;;
66437;SDS011;54537;47.972;11.662;2024-01-10T07:15:30;40.50;;;10.60;;
66437;SDS011;54537;47.972;11.662;2024-01-10T07:17:59;44.33;;;10.88;;
66437;SDS011;54537;47.972;11.662;2024-01-10T07:20:25;42.38;;;10.50;;
66437;SDS011;54537;47.972;11.662;2024-01-10T07:22:52;37.58;;;10.25;;
66437;SDS011;54537;47.972;11.662;2024-01-10T07:25:19;48.13;;;10.93;;
66437;SDS011;54537;47.972;11.662;2024-01-10T07:27:50;34.33;;;10.05;;
66437;SDS011;54537;47.972;11.662;2024-01-10T07:30:16;37.28;;;10.10;;
66437;SDS011;54537;47.972;11.662;2024-01-10T07:32:43;38.20;;;11.40;;
66437;SDS011;54537;47.972;11.662;2024-01-10T07:35:12;34.13;;;8.57;;
66437;SDS011;54537;47.972;11.662;2024-01-10T07:37:40;37.40;;;9.95;;
66437;SDS011;54537;47.972;11.662;2024-01-10T07:40:07;34.90;;;11.32;;
66437;SDS011;54537;47.972;11.662;2024-01-10T07:42:35;43.03;;;12.43;;
66437;SDS011;54537;47.972;11.662;2024-01-10T07:45:03;48.97;;;11.60;;
66437;SDS011;54537;47.972;11.662;2024-01-10T07:47:30;43.53;;;11.93;;
66437;SDS011;54537;47.972;11.662;2024-01-10T07:49:57;44.08;;;10.82;;
66437;SDS011;54537;47.972;11.662;2024-01-10T07:52:25;45.53;;;12.85;;
66437;SDS011;54537;47.972;11.662;2024-01-10T07:54:52;36.25;;;10.30;;
66437;SDS011;54537;47.972;11.662;2024-01-10T07:57:18;42.35;;;10.27;;
66437;SDS011;54537;47.972;11.662;2024-01-10T07:59:44;46.08;;;11.88;;
66437;SDS011;54537;47.972;11.662;2024-01-10T08:02:11;46.45;;;13.40;;
66437;SDS011;54537;47.972;11.662;2024-01-10T08:04:38;36.65;;;9.98;;
66437;SDS011;54537;47.972;11.662;2024-01-10T08:07:04;48.78;;;12.30;;
66437;SDS011;54537;47.972;11.662;2024-01-10T08:09:32;44.88;;;10.57;;
66437;SDS011;54537;47.972;11.662;2024-01-10T08:11:59;40.05;;;11.38;;
66437;SDS011;54537;47.972;11.662;2024-01-10T08:14:26;38.70;;;11.13;;
66437;SDS011;54537;47.972;11.662;2024-01-10T08:16:52;40.33;;;11.57;;
66437;SDS011;54537;47.972;11.662;2024-01-10T08:19:19;49.45;;;11.07;;
66437;SDS011;54537;47.972;11.662;2024-01-10T08:21:46;39.65;;;10.55;;
66437;SDS011;54537;47.972;11.662;2024-01-10T08:24:12;40.80;;;10.18;;
66437;SDS011;54537;47.972;11.662;2024-01-10T08:26:40;45.20;;;9.90;;
66437;SDS011;54537;47.972;11.662;2024-01-10T08:29:07;41.03;;;10.68;;
66437;SDS011;54537;47.972;11.662;2024-01-10T08:31:33;38.47;;;10.98;;
66437;SDS011;54537;47.972;11.662;2024-01-10T08:34:00;39.95;;;9.63;;
66437;SDS011;54537;47.972;11.662;2024-01-10T08:36:27;39.38;;;10.52;;
66437;SDS011;54537;47.972;11.662;2024-01-10T08:38:54;48.80;;;11.43;;
66437;SDS011;54537;47.972;11.662;2024-01-10T08:41:21;36.50;;;11.00;;
66437;SDS011;54537;47.972;11.662;2024-01-10T08:43:49;45.67;;;12.20;;
66437;SDS011;54537;47.972;11.662;2024-01-10T08:46:16;37.53;;;10.88;;
66437;SDS011;54537;47.972;11.662;2024-01-10T08:48:43;46.63;;;11.60;;
66437;SDS011;54537;47.972;11.662;2024-01-10T08:51:09;41.33;;;9.85;;
66437;SDS011;54537;47.972;11.662;2024-01-10T08:53:37;51.55;;;12.68;;
66437;SDS011;54537;47.972;11.662;2024-01-10T08:56:03;45.08;;;12.55;;
66437;SDS011;54537;47.972;11.662;2024-01-10T08:58:31;49.75;;;13.15;;
66437;SDS011;54537;47.972;11.662;2024-01-10T09:00:58;39.55;;;10.88;;
66437;SDS011;54537;47.972;11.662;2024-01-10T09:03:25;50.05;;;14.13;;
66437;SDS011;54537;47.972;11.662;2024-01-10T09:05:52;51.08;;;12.27;;
66437;SDS011;54537;47.972;11.662;2024-01-10T09:08:18;50.13;;;12.82;;
66437;SDS011;54537;47.972;11.662;2024-01-10T09:10:45;45.80;;;12.35;;
66437;SDS011;54537;47.972;11.662;2024-01-10T09:13:14;50.15;;;12.48;;
66437;SDS011;54537;47.972;11.662;2024-01-10T09:15:40;49.67;;;12.45;;
66437;SDS011;54537;47.972;11.662;2024-01-10T09:18:08;40.13;;;11.15;;
66437;SDS011;54537;47.972;11.662;2024-01-10T09:20:35;50.80;;;13.95;;
66437;SDS011;54537;47.972;11.662;2024-01-10T09:23:02;49.65;;;13.20;;
66437;SDS011;54537;47.972;11.662;2024-01-10T09:25:28;47.20;;;12.52;;
66437;SDS011;54537;47.972;11.662;2024-01-10T09:27:55;52.80;;;12.90;;
66437;SDS011;54537;47.972;11.662;2024-01-10T09:30:22;45.30;;;12.20;;
66437;SDS011;54537;47.972;11.662;2024-01-10T09:32:49;40.53;;;13.80;;
66437;SDS011;54537;47.972;11.662;2024-01-10T09:35:17;44.97;;;13.32;;
66437;SDS011;54537;47.972;11.662;2024-01-10T09:37:44;40.42;;;11.70;;
66437;SDS011;54537;47.972;11.662;2024-01-10T09:40:11;49.08;;;14.95;;
66437;SDS011;54537;47.972;11.662;2024-01-10T09:42:40;42.25;;;13.00;;
66437;SDS011;54537;47.972;11.662;2024-01-10T09:45:08;45.72;;;14.30;;
66437;SDS011;54537;47.972;11.662;2024-01-10T09:47:37;53.88;;;15.00;;
66437;SDS011;54537;47.972;11.662;2024-01-10T09:50:08;46.08;;;13.90;;
66437;SDS011;54537;47.972;11.662;2024-01-10T09:52:40;47.58;;;14.95;;
66437;SDS011;54537;47.972;11.662;2024-01-10T09:55:07;46.13;;;14.23;;
66437;SDS011;54537;47.972;11.662;2024-01-10T09:57:35;47.60;;;15.20;;
66437;SDS011;54537;47.972;11.662;2024-01-10T10:00:02;46.53;;;14.07;;
66437;SDS011;54537;47.972;11.662;2024-01-10T10:05:02;49.35;;;14.45;;
66437;SDS011;54537;47.972;11.662;2024-01-10T10:07:30;46.60;;;15.18;;
66437;SDS011;54537;47.972;11.662;2024-01-10T10:09:58;43.40;;;14.05;;
66437;SDS011;54537;47.972;11.662;2024-01-10T10:12:41;40.85;;;14.18;;
66437;SDS011;54537;47.972;11.662;2024-01-10T10:15:10;45.22;;;14.55;;
66437;SDS011;54537;47.972;11.662;2024-01-10T10:17:37;42.35;;;14.32;;
66437;SDS011;54537;47.972;11.662;2024-01-10T10:20:10;50.00;;;15.88;;
66437;SDS011;54537;47.972;11.662;2024-01-10T10:22:38;40.80;;;14.05;;
66437;SDS011;54537;47.972;11.662;2024-01-10T10:25:06;41.20;;;13.93;;
66437;SDS011;54537;47.972;11.662;2024-01-10T10:27:35;42.97;;;14.23;;
66437;SDS011;54537;47.972;11.662;2024-01-10T10:30:03;41.65;;;13.98;;
66437;SDS011;54537;47.972;11.662;2024-01-10T10:32:34;41.50;;;14.57;;
66437;SDS011;54537;47.972;11.662;2024-01-10T10:35:00;44.00;;;14.63;;
66437;SDS011;54537;47.972;11.662;2024-01-10T10:37:28;43.28;;;14.07;;
66437;SDS011;54537;47.972;11.662;2024-01-10T10:39:54;48.03;;;15.25;;
66437;SDS011;54537;47.972;11.662;2024-01-10T10:42:22;51.05;;;15.38;;
66437;SDS011;54537;47.972;11.662;2024-01-10T10:44:49;47.67;;;14.75;;
66437;SDS011;54537;47.972;11.662;2024-01-10T10:47:17;46.70;;;14.52;;
66437;SDS011;54537;47.972;11.662;2024-01-10T10:49:46;41.75;;;14.27;;
66437;SDS011;54537;47.972;11.662;2024-01-10T10:52:15;45.20;;;14.52;;
66437;SDS011;54537;47.972;11.662;2024-01-10T10:54:41;56.85;;;15.57;;
66437;SDS011;54537;47.972;11.662;2024-01-10T10:57:09;45.47;;;14.63;;
66437;SDS011;54537;47.972;11.662;2024-01-10T10:59:37;46.35;;;15.63;;
66437;SDS011;54537;47.972;11.662;2024-01-10T11:02:04;48.22;;;14.88;;
66437;SDS011;54537;47.972;11.662;2024-01-10T11:04:32;50.80;;;15.18;;
66437;SDS011;54537;47.972;11.662;2024-01-10T11:06:59;43.70;;;14.32;;
66437;SDS011;54537;47.972;11.662;2024-01-10T11:09:26;43.55;;;15.65;;
66437;SDS011;54537;47.972;11.662;2024-01-10T11:12:07;42.42;;;14.55;;
66437;SDS011;54537;47.972;11.662;2024-01-10T11:14:48;47.60;;;14.68;;
66437;SDS011;54537;47.972;11.662;2024-01-10T11:17:26;47.95;;;14.43;;
66437;SDS011;54537;47.972;11.662;2024-01-10T11:20:21;48.20;;;15.25;;
66437;SDS011;54537;47.972;11.662;2024-01-10T11:23:10;41.10;;;14.25;;
66437;SDS011;54537;47.972;11.662;2024-01-10T11:25:48;39.88;;;13.68;;
66437;SDS011;54537;47.972;11.662;2024-01-10T11:28:15;45.38;;;15.57;;
66437;SDS011;54537;47.972;11.662;2024-01-10T11:30:50;42.10;;;14.40;;
66437;SDS011;54537;47.972;11.662;2024-01-10T11:33:18;42.25;;;14.15;;
66437;SDS011;54537;47.972;11.662;2024-01-10T11:38:38;46.22;;;14.90;;
66437;SDS011;54537;47.972;11.662;2024-01-10T11:41:06;43.75;;;14.45;;
66437;SDS011;54537;47.972;11.662;2024-01-10T11:43:33;41.25;;;13.20;;
66437;SDS011;54537;47.972;11.662;2024-01-10T11:46:02;45.10;;;14.10;;
66437;SDS011;54537;47.972;11.662;2024-01-10T11:48:30;46.67;;;15.00;;
66437;SDS011;54537;47.972;11.662;2024-01-10T11:50:58;42.40;;;14.15;;
66437;SDS011;54537;47.972;11.662;2024-01-10T11:53:38;42.08;;;13.63;;
66437;SDS011;54537;47.972;11.662;2024-01-10T11:56:09;43.53;;;14.15;;
66437;SDS011;54537;47.972;11.662;2024-01-10T12:01:19;49.00;;;14.75;;
66437;SDS011;54537;47.972;11.662;2024-01-10T12:03:47;47.97;;;16.33;;
66437;SDS011;54537;47.972;11.662;2024-01-10T12:06:14;54.08;;;15.30;;
66437;SDS011;54537;47.972;11.662;2024-01-10T12:08:41;47.53;;;14.98;;
66437;SDS011;54537;47.972;11.662;2024-01-10T12:11:07;48.80;;;14.32;;
66437;SDS011;54537;47.972;11.662;2024-01-10T12:13:34;56.08;;;16.33;;
66437;SDS011;54537;47.972;11.662;2024-01-10T12:16:01;49.83;;;14.05;;
66437;SDS011;54537;47.972;11.662;2024-01-10T12:18:29;53.75;;;14.27;;
66437;SDS011;54537;47.972;11.662;2024-01-10T12:20:56;48.97;;;13.13;;
66437;SDS011;54537;47.972;11.662;2024-01-10T12:23:22;43.97;;;13.40;;
66437;SDS011;54537;47.972;11.662;2024-01-10T12:25:49;48.83;;;15.35;;
66437;SDS011;54537;47.972;11.662;2024-01-10T12:28:16;45.28;;;13.48;;
66437;SDS011;54537;47.972;11.662;2024-01-10T12:30:43;53.53;;;14.30;;
66437;SDS011;54537;47.972;11.662;2024-01-10T12:33:09;44.53;;;13.45;;
66437;SDS011;54537;47.972;11.662;2024-01-10T12:35:37;48.17;;;14.50;;
66437;SDS011;54537;47.972;11.662;2024-01-10T12:38:07;49.72;;;14.50;;
66437;SDS011;54537;47.972;11.662;2024-01-10T12:40:36;48.03;;;12.65;;
66437;SDS011;54537;47.972;11.662;2024-01-10T12:43:03;46.05;;;13.40;;
66437;SDS011;54537;47.972;11.662;2024-01-10T12:45:30;44.45;;;14.88;;
66437;SDS011;54537;47.972;11.662;2024-01-10T12:47:57;46.70;;;12.82;;
66437;SDS011;54537;47.972;11.662;2024-01-10T12:50:24;52.13;;;14.77;;
66437;SDS011;54537;47.972;11.662;2024-01-10T12:52:52;49.70;;;13.48;;
66437;SDS011;54537;47.972;11.662;2024-01-10T12:55:19;48.22;;;13.40;;
66437;SDS011;54537;47.972;11.662;2024-01-10T12:57:46;50.58;;;14.45;;
66437;SDS011;54537;47.972;11.662;2024-01-10T13:00:13;51.08;;;13.25;;
66437;SDS011;54537;47.972;11.662;2024-01-10T13:02:40;46.33;;;13.02;;
66437;SDS011;54537;47.972;11.662;2024-01-10T13:05:07;53.97;;;14.35;;
66437;SDS011;54537;47.972;11.662;2024-01-10T13:07:35;54.72;;;14.82;;
66437;SDS011;54537;47.972;11.662;2024-01-10T13:10:03;46.53;;;13.48;;
66437;SDS011;54537;47.972;11.662;2024-01-10T13:12:30;50.60;;;13.10;;
66437;SDS011;54537;47.972;11.662;2024-01-10T13:14:57;49.22;;;13.52;;
66437;SDS011;54537;47.972;11.662;2024-01-10T13:17:23;53.85;;;15.13;;
66437;SDS011;54537;47.972;11.662;2024-01-10T13:19:50;48.53;;;12.63;;
66437;SDS011;54537;47.972;11.662;2024-01-10T13:22:18;51.45;;;14.57;;
66437;SDS011;54537;47.972;11.662;2024-01-10T13:24:45;54.47;;;14.85;;
66437;SDS011;54537;47.972;11.662;2024-01-10T13:27:13;53.78;;;14.85;;
66437;SDS011;54537;47.972;11.662;2024-01-10T13:29:40;47.67;;;12.82;;
66437;SDS011;54537;47.972;11.662;2024-01-10T13:32:06;52.65;;;14.50;;
66437;SDS011;54537;47.972;11.662;2024-01-10T13:34:34;55.80;;;15.60;;
66437;SDS011;54537;47.972;11.662;2024-01-10T13:37:01;59.25;;;14.50;;
66437;SDS011;54537;47.972;11.662;2024-01-10T13:39:28;55.22;;;15.15;;
66437;SDS011;54537;47.972;11.662;2024-01-10T13:41:55;50.85;;;13.70;;
66437;SDS011;54537;47.972;11.662;2024-01-10T13:44:23;57.50;;;16.63;;
66437;SDS011;54537;47.972;11.662;2024-01-10T13:46:49;54.95;;;14.85;;
66437;SDS011;54537;47.972;11.662;2024-01-10T13:49:16;48.55;;;12.82;;
66437;SDS011;54537;47.972;11.662;2024-01-10T13:51:43;57.85;;;15.48;;
66437;SDS011;54537;47.972;11.662;2024-01-10T13:54:09;48.88;;;15.40;;
66437;SDS011;54537;47.972;11.662;2024-01-10T13:56:36;56.13;;;15.80;;
66437;SDS011;54537;47.972;11.662;2024-01-10T13:59:04;52.70;;;12.93;;
66437;SDS011;54537;47.972;11.662;2024-01-10T14:01:32;56.33;;;14.00;;
66437;SDS011;54537;47.972;11.662;2024-01-10T14:03:59;53.47;;;14.45;;
66437;SDS011;54537;47.972;11.662;2024-01-10T14:06:25;52.90;;;12.77;;
66437;SDS011;54537;47.972;11.662;2024-01-10T14:08:52;54.92;;;13.35;;
66437;SDS011;54537;47.972;11.662;2024-01-10T14:11:18;43.30;;;12.55;;
66437;SDS011;54537;47.972;11.662;2024-01-10T14:13:45;49.55;;;13.02;;
66437;SDS011;54537;47.972;11.662;2024-01-10T14:16:12;44.00;;;11.63;;
66437;SDS011;54537;47.972;11.662;2024-01-10T14:18:40;51.78;;;12.25;;
66437;SDS011;54537;47.972;11.662;2024-01-10T14:21:06;42.50;;;11.30;;